sensor_id;sensor_type;location;lat;lon;timestamp;temperature;humidity
2190;DHT22;1101;51.056;7.262;2022-07-22T00:02:00;16.70;90.30
2190;DHT22;1101;51.056;7.262;2022-07-22T00:04:28;16.70;90.30
2190;DHT22;1101;51.056;7.262;2022-07-22T00:06:56;16.70;90.30
2190;DHT22;1101;51.056;7.262;2022-07-22T00:09:24;16.70;90.30
2190;DHT22;1101;51.056;7.262;2022-07-22T00:11:52;16.60;90.30
2190;DHT22;1101;51.056;7.262;2022-07-22T00:14:21;16.60;90.30
2190;DHT22;1101;51.056;7.262;2022-07-22T00:16:49;16.60;90.30
2190;DHT22;1101;51.056;7.262;2022-07-22T00:19:17;16.60;90.30
2190;DHT22;1101;51.056;7.262;2022-07-22T00:21:45;16.60;90.30
2190;DHT22;1101;51.056;7.262;2022-07-22T00:24:15;16.70;90.30
2190;DHT22;1101;51.056;7.262;2022-07-22T00:26:43;16.70;90.30
2190;DHT22;1101;51.056;7.262;2022-07-22T00:29:11;16.70;90.30
2190;DHT22;1101;51.056;7.262;2022-07-22T00:31:40;16.70;90.30
2190;DHT22;1101;51.056;7.262;2022-07-22T00:34:08;16.70;90.30
2190;DHT22;1101;51.056;7.262;2022-07-22T00:36:36;16.70;90.30
2190;DHT22;1101;51.056;7.262;2022-07-22T00:39:04;16.60;90.30
2190;DHT22;1101;51.056;7.262;2022-07-22T00:41:31;16.60;90.30
2190;DHT22;1101;51.056;7.262;2022-07-22T00:44:05;16.60;90.30
2190;DHT22;1101;51.056;7.262;2022-07-22T00:46:34;16.60;90.30
2190;DHT22;1101;51.056;7.262;2022-07-22T00:49:04;16.60;90.30
2190;DHT22;1101;51.056;7.262;2022-07-22T00:51:32;16.60;90.40
2190;DHT22;1101;51.056;7.262;2022-07-22T00:54:02;16.60;90.50
2190;DHT22;1101;51.056;7.262;2022-07-22T00:56:30;16.60;90.40
2190;DHT22;1101;51.056;7.262;2022-07-22T00:59:00;16.60;90.40
2190;DHT22;1101;51.056;7.262;2022-07-22T01:01:28;16.60;90.40
2190;DHT22;1101;51.056;7.262;2022-07-22T01:03:56;16.50;90.40
2190;DHT22;1101;51.056;7.262;2022-07-22T01:06:29;16.50;90.40
2190;DHT22;1101;51.056;7.262;2022-07-22T01:08:57;16.50;90.40
2190;DHT22;1101;51.056;7.262;2022-07-22T01:11:26;16.50;90.40
2190;DHT22;1101;51.056;7.262;2022-07-22T01:13:56;16.50;90.40
2190;DHT22;1101;51.056;7.262;2022-07-22T01:16:24;16.50;90.40
2190;DHT22;1101;51.056;7.262;2022-07-22T01:18:52;16.50;90.40
2190;DHT22;1101;51.056;7.262;2022-07-22T01:21:22;16.50;90.30
2190;DHT22;1101;51.056;7.262;2022-07-22T01:23:50;16.50;90.40
2190;DHT22;1101;51.056;7.262;2022-07-22T01:26:18;16.50;90.40
2190;DHT22;1101;51.056;7.262;2022-07-22T01:28:46;16.50;90.40
2190;DHT22;1101;51.056;7.262;2022-07-22T01:31:14;16.50;90.40
2190;DHT22;1101;51.056;7.262;2022-07-22T01:33:42;16.50;90.40
2190;DHT22;1101;51.056;7.262;2022-07-22T01:36:10;16.50;90.40
2190;DHT22;1101;51.056;7.262;2022-07-22T01:38:39;16.50;90.40
2190;DHT22;1101;51.056;7.262;2022-07-22T01:41:07;16.50;90.40
2190;DHT22;1101;51.056;7.262;2022-07-22T01:43:35;16.50;90.50
2190;DHT22;1101;51.056;7.262;2022-07-22T01:46:03;16.50;90.40
2190;DHT22;1101;51.056;7.262;2022-07-22T01:48:31;16.50;90.40
2190;DHT22;1101;51.056;7.262;2022-07-22T01:50:59;16.50;90.40
2190;DHT22;1101;51.056;7.262;2022-07-22T01:53:27;16.50;90.40
2190;DHT22;1101;51.056;7.262;2022-07-22T01:55:56;16.50;90.40
2190;DHT22;1101;51.056;7.262;2022-07-22T01:58:24;16.50;90.50
2190;DHT22;1101;51.056;7.262;2022-07-22T02:00:52;16.50;90.50
2190;DHT22;1101;51.056;7.262;2022-07-22T02:03:20;16.50;90.50
2190;DHT22;1101;51.056;7.262;2022-07-22T02:05:48;16.50;90.50
2190;DHT22;1101;51.056;7.262;2022-07-22T02:08:16;16.50;90.50
2190;DHT22;1101;51.056;7.262;2022-07-22T02:10:44;16.50;90.50
2190;DHT22;1101;51.056;7.262;2022-07-22T02:13:13;16.50;90.50
2190;DHT22;1101;51.056;7.262;2022-07-22T02:15:41;16.40;90.30
2190;DHT22;1101;51.056;7.262;2022-07-22T02:18:11;16.40;90.40
2190;DHT22;1101;51.056;7.262;2022-07-22T02:20:39;16.40;90.40
2190;DHT22;1101;51.056;7.262;2022-07-22T02:23:07;16.40;90.50
2190;DHT22;1101;51.056;7.262;2022-07-22T02:25:38;16.40;90.50
2190;DHT22;1101;51.056;7.262;2022-07-22T02:28:06;16.40;90.40
2190;DHT22;1101;51.056;7.262;2022-07-22T02:30:36;16.30;90.40
2190;DHT22;1101;51.056;7.262;2022-07-22T02:35:41;16.30;90.50
2190;DHT22;1101;51.056;7.262;2022-07-22T02:38:09;16.40;90.50
2190;DHT22;1101;51.056;7.262;2022-07-22T02:40:37;16.30;90.50
2190;DHT22;1101;51.056;7.262;2022-07-22T02:43:05;16.30;90.50
2190;DHT22;1101;51.056;7.262;2022-07-22T02:45:35;16.30;90.50
2190;DHT22;1101;51.056;7.262;2022-07-22T02:48:03;16.30;90.50
2190;DHT22;1101;51.056;7.262;2022-07-22T02:50:31;16.30;90.50
2190;DHT22;1101;51.056;7.262;2022-07-22T02:52:59;16.30;90.50
2190;DHT22;1101;51.056;7.262;2022-07-22T02:55:27;16.30;90.50
2190;DHT22;1101;51.056;7.262;2022-07-22T02:57:55;16.30;90.50
2190;DHT22;1101;51.056;7.262;2022-07-22T03:00:22;16.30;90.50
2190;DHT22;1101;51.056;7.262;2022-07-22T03:02:51;16.30;90.50
2190;DHT22;1101;51.056;7.262;2022-07-22T03:05:19;16.30;90.50
2190;DHT22;1101;51.056;7.262;2022-07-22T03:07:47;16.30;90.50
2190;DHT22;1101;51.056;7.262;2022-07-22T03:10:15;16.30;90.60
2190;DHT22;1101;51.056;7.262;2022-07-22T03:12:43;16.30;90.50
2190;DHT22;1101;51.056;7.262;2022-07-22T03:15:11;16.30;90.60
2190;DHT22;1101;51.056;7.262;2022-07-22T03:17:39;16.30;90.60
2190;DHT22;1101;51.056;7.262;2022-07-22T03:20:10;16.30;90.50
2190;DHT22;1101;51.056;7.262;2022-07-22T03:22:38;16.30;90.50
2190;DHT22;1101;51.056;7.262;2022-07-22T03:25:07;16.20;90.50
2190;DHT22;1101;51.056;7.262;2022-07-22T03:27:35;16.20;90.50
2190;DHT22;1101;51.056;7.262;2022-07-22T03:30:03;16.20;90.50
2190;DHT22;1101;51.056;7.262;2022-07-22T03:32:31;16.20;90.50
2190;DHT22;1101;51.056;7.262;2022-07-22T03:34:59;16.20;90.50
2190;DHT22;1101;51.056;7.262;2022-07-22T03:37:31;16.20;90.60
2190;DHT22;1101;51.056;7.262;2022-07-22T03:39:59;16.20;90.60
2190;DHT22;1101;51.056;7.262;2022-07-22T03:42:27;16.30;90.60
2190;DHT22;1101;51.056;7.262;2022-07-22T03:44:55;16.30;90.60
2190;DHT22;1101;51.056;7.262;2022-07-22T03:47:23;16.30;90.60
2190;DHT22;1101;51.056;7.262;2022-07-22T03:49:51;16.30;90.60
2190;DHT22;1101;51.056;7.262;2022-07-22T03:52:19;16.20;90.60
2190;DHT22;1101;51.056;7.262;2022-07-22T03:54:48;16.20;90.60
2190;DHT22;1101;51.056;7.262;2022-07-22T03:57:17;16.20;90.60
2190;DHT22;1101;51.056;7.262;2022-07-22T03:59:46;16.20;90.60
2190;DHT22;1101;51.056;7.262;2022-07-22T04:02:14;16.20;90.60
2190;DHT22;1101;51.056;7.262;2022-07-22T04:04:41;16.20;90.60
2190;DHT22;1101;51.056;7.262;2022-07-22T04:07:09;16.20;90.60
2190;DHT22;1101;51.056;7.262;2022-07-22T04:09:37;16.20;90.60
2190;DHT22;1101;51.056;7.262;2022-07-22T04:12:07;16.20;90.60
2190;DHT22;1101;51.056;7.262;2022-07-22T04:14:34;16.20;90.60
2190;DHT22;1101;51.056;7.262;2022-07-22T04:17:02;16.20;90.70
2190;DHT22;1101;51.056;7.262;2022-07-22T04:19:30;16.20;90.70
2190;DHT22;1101;51.056;7.262;2022-07-22T04:21:58;16.20;90.70
2190;DHT22;1101;51.056;7.262;2022-07-22T04:24:26;16.20;90.60
2190;DHT22;1101;51.056;7.262;2022-07-22T04:26:53;16.20;90.70
2190;DHT22;1101;51.056;7.262;2022-07-22T04:29:23;16.20;90.70
2190;DHT22;1101;51.056;7.262;2022-07-22T04:31:50;16.20;90.70
2190;DHT22;1101;51.056;7.262;2022-07-22T04:34:24;16.20;91.00
2190;DHT22;1101;51.056;7.262;2022-07-22T04:36:51;16.20;90.80
2190;DHT22;1101;51.056;7.262;2022-07-22T04:39:19;16.30;90.80
2190;DHT22;1101;51.056;7.262;2022-07-22T04:41:47;16.30;90.80
2190;DHT22;1101;51.056;7.262;2022-07-22T04:44:15;16.30;90.80
2190;DHT22;1101;51.056;7.262;2022-07-22T04:46:44;16.30;90.80
2190;DHT22;1101;51.056;7.262;2022-07-22T04:49:12;16.30;90.70
2190;DHT22;1101;51.056;7.262;2022-07-22T04:51:40;16.30;90.80
2190;DHT22;1101;51.056;7.262;2022-07-22T04:54:08;16.30;90.80
2190;DHT22;1101;51.056;7.262;2022-07-22T04:56:36;16.30;90.80
2190;DHT22;1101;51.056;7.262;2022-07-22T04:59:04;16.20;90.70
2190;DHT22;1101;51.056;7.262;2022-07-22T05:01:31;16.30;90.80
2190;DHT22;1101;51.056;7.262;2022-07-22T05:04:01;16.30;90.80
2190;DHT22;1101;51.056;7.262;2022-07-22T05:06:28;16.30;90.80
2190;DHT22;1101;51.056;7.262;2022-07-22T05:08:56;16.30;90.80
2190;DHT22;1101;51.056;7.262;2022-07-22T05:11:25;16.30;90.80
2190;DHT22;1101;51.056;7.262;2022-07-22T05:13:52;16.30;90.80
2190;DHT22;1101;51.056;7.262;2022-07-22T05:16:20;16.30;90.80
2190;DHT22;1101;51.056;7.262;2022-07-22T05:18:48;16.20;90.70
2190;DHT22;1101;51.056;7.262;2022-07-22T05:21:17;16.20;90.90
2190;DHT22;1101;51.056;7.262;2022-07-22T05:23:45;16.20;91.10
2190;DHT22;1101;51.056;7.262;2022-07-22T05:26:13;16.20;90.70
2190;DHT22;1101;51.056;7.262;2022-07-22T05:28:40;16.20;90.80
2190;DHT22;1101;51.056;7.262;2022-07-22T05:31:08;16.20;90.70
2190;DHT22;1101;51.056;7.262;2022-07-22T05:33:36;16.20;90.70
2190;DHT22;1101;51.056;7.262;2022-07-22T05:36:05;16.20;90.70
2190;DHT22;1101;51.056;7.262;2022-07-22T05:38:34;16.20;90.80
2190;DHT22;1101;51.056;7.262;2022-07-22T05:41:02;16.20;90.80
2190;DHT22;1101;51.056;7.262;2022-07-22T05:43:30;16.20;90.80
2190;DHT22;1101;51.056;7.262;2022-07-22T05:45:59;16.20;90.70
2190;DHT22;1101;51.056;7.262;2022-07-22T05:48:27;16.30;90.80
2190;DHT22;1101;51.056;7.262;2022-07-22T05:50:55;16.30;90.80
2190;DHT22;1101;51.056;7.262;2022-07-22T05:53:22;16.30;90.80
2190;DHT22;1101;51.056;7.262;2022-07-22T05:55:52;16.30;90.80
2190;DHT22;1101;51.056;7.262;2022-07-22T05:58:19;16.30;90.80
2190;DHT22;1101;51.056;7.262;2022-07-22T06:00:47;16.40;90.80
2190;DHT22;1101;51.056;7.262;2022-07-22T06:03:15;16.40;90.80
2190;DHT22;1101;51.056;7.262;2022-07-22T06:05:44;16.40;90.80
2190;DHT22;1101;51.056;7.262;2022-07-22T06:08:12;16.40;90.80
2190;DHT22;1101;51.056;7.262;2022-07-22T06:10:40;16.50;90.80
2190;DHT22;1101;51.056;7.262;2022-07-22T06:13:09;16.50;90.80
2190;DHT22;1101;51.056;7.262;2022-07-22T06:15:37;16.50;90.90
2190;DHT22;1101;51.056;7.262;2022-07-22T06:18:05;16.50;91.00
2190;DHT22;1101;51.056;7.262;2022-07-22T06:20:33;16.50;91.20
2190;DHT22;1101;51.056;7.262;2022-07-22T06:23:01;16.50;90.90
2190;DHT22;1101;51.056;7.262;2022-07-22T06:25:29;16.50;90.80
2190;DHT22;1101;51.056;7.262;2022-07-22T06:28:09;16.60;90.90
2190;DHT22;1101;51.056;7.262;2022-07-22T06:30:37;16.60;90.90
2190;DHT22;1101;51.056;7.262;2022-07-22T06:33:05;16.60;91.00
2190;DHT22;1101;51.056;7.262;2022-07-22T06:35:33;16.60;91.00
2190;DHT22;1101;51.056;7.262;2022-07-22T06:38:01;16.70;91.00
2190;DHT22;1101;51.056;7.262;2022-07-22T06:40:32;16.70;91.00
2190;DHT22;1101;51.056;7.262;2022-07-22T06:43:01;16.70;91.00
2190;DHT22;1101;51.056;7.262;2022-07-22T06:45:31;16.80;91.00
2190;DHT22;1101;51.056;7.262;2022-07-22T06:47:59;16.70;90.90
2190;DHT22;1101;51.056;7.262;2022-07-22T06:50:27;16.80;90.90
2190;DHT22;1101;51.056;7.262;2022-07-22T06:52:55;16.80;90.90
2190;DHT22;1101;51.056;7.262;2022-07-22T06:55:23;16.80;90.90
2190;DHT22;1101;51.056;7.262;2022-07-22T06:57:51;16.80;90.90
2190;DHT22;1101;51.056;7.262;2022-07-22T07:00:18;16.90;90.90
2190;DHT22;1101;51.056;7.262;2022-07-22T07:02:48;16.80;90.90
2190;DHT22;1101;51.056;7.262;2022-07-22T07:05:15;16.80;90.90
2190;DHT22;1101;51.056;7.262;2022-07-22T07:07:46;16.80;90.90
2190;DHT22;1101;51.056;7.262;2022-07-22T07:10:14;16.80;90.80
2190;DHT22;1101;51.056;7.262;2022-07-22T07:12:42;16.80;90.90
2190;DHT22;1101;51.056;7.262;2022-07-22T07:15:11;16.70;90.80
2190;DHT22;1101;51.056;7.262;2022-07-22T07:17:53;16.70;90.90
2190;DHT22;1101;51.056;7.262;2022-07-22T07:20:23;16.60;90.70
2190;DHT22;1101;51.056;7.262;2022-07-22T07:22:51;16.60;90.80
2190;DHT22;1101;51.056;7.262;2022-07-22T07:25:19;16.60;90.80
2190;DHT22;1101;51.056;7.262;2022-07-22T07:27:50;16.60;90.80
2190;DHT22;1101;51.056;7.262;2022-07-22T07:30:21;16.60;90.80
2190;DHT22;1101;51.056;7.262;2022-07-22T07:32:51;16.60;90.80
2190;DHT22;1101;51.056;7.262;2022-07-22T07:35:19;16.60;90.80
2190;DHT22;1101;51.056;7.262;2022-07-22T07:37:47;16.60;90.70
2190;DHT22;1101;51.056;7.262;2022-07-22T07:40:14;16.60;90.70
2190;DHT22;1101;51.056;7.262;2022-07-22T07:42:42;16.60;90.60
2190;DHT22;1101;51.056;7.262;2022-07-22T07:45:15;16.60;90.60
2190;DHT22;1101;51.056;7.262;2022-07-22T07:47:47;16.60;90.50
2190;DHT22;1101;51.056;7.262;2022-07-22T07:50:16;16.50;90.60
2190;DHT22;1101;51.056;7.262;2022-07-22T07:52:45;16.60;90.60
2190;DHT22;1101;51.056;7.262;2022-07-22T07:55:18;16.60;90.70
2190;DHT22;1101;51.056;7.262;2022-07-22T07:57:47;16.60;90.70
2190;DHT22;1101;51.056;7.262;2022-07-22T08:00:19;16.60;90.70
2190;DHT22;1101;51.056;7.262;2022-07-22T08:02:48;16.60;90.70
2190;DHT22;1101;51.056;7.262;2022-07-22T08:05:17;16.60;90.70
2190;DHT22;1101;51.056;7.262;2022-07-22T08:07:48;16.60;90.70
2190;DHT22;1101;51.056;7.262;2022-07-22T08:10:17;16.70;90.70
2190;DHT22;1101;51.056;7.262;2022-07-22T08:13:05;16.70;90.70
2190;DHT22;1101;51.056;7.262;2022-07-22T08:15:35;16.70;90.80
2190;DHT22;1101;51.056;7.262;2022-07-22T08:18:03;16.70;90.70
2190;DHT22;1101;51.056;7.262;2022-07-22T08:20:32;16.70;90.60
2190;DHT22;1101;51.056;7.262;2022-07-22T08:23:00;16.70;90.70
2190;DHT22;1101;51.056;7.262;2022-07-22T08:25:28;16.80;90.80
2190;DHT22;1101;51.056;7.262;2022-07-22T08:27:56;16.80;90.70
2190;DHT22;1101;51.056;7.262;2022-07-22T08:30:25;16.80;90.60
2190;DHT22;1101;51.056;7.262;2022-07-22T08:32:56;16.80;90.60
2190;DHT22;1101;51.056;7.262;2022-07-22T08:35:24;16.90;90.70
2190;DHT22;1101;51.056;7.262;2022-07-22T08:37:53;16.90;90.60
2190;DHT22;1101;51.056;7.262;2022-07-22T08:40:21;17.00;90.70
2190;DHT22;1101;51.056;7.262;2022-07-22T08:42:50;17.00;90.70
2190;DHT22;1101;51.056;7.262;2022-07-22T08:45:18;17.10;90.70
2190;DHT22;1101;51.056;7.262;2022-07-22T08:47:47;17.20;90.70
2190;DHT22;1101;51.056;7.262;2022-07-22T08:50:15;17.20;90.60
2190;DHT22;1101;51.056;7.262;2022-07-22T08:52:43;17.20;90.50
2190;DHT22;1101;51.056;7.262;2022-07-22T08:55:13;17.30;90.60
2190;DHT22;1101;51.056;7.262;2022-07-22T08:57:45;17.40;90.60
2190;DHT22;1101;51.056;7.262;2022-07-22T09:00:15;17.40;90.60
2190;DHT22;1101;51.056;7.262;2022-07-22T09:02:43;17.40;90.50
2190;DHT22;1101;51.056;7.262;2022-07-22T09:05:13;17.50;90.50
2190;DHT22;1101;51.056;7.262;2022-07-22T09:08:02;17.50;90.40
2190;DHT22;1101;51.056;7.262;2022-07-22T09:10:36;17.50;90.40
2190;DHT22;1101;51.056;7.262;2022-07-22T09:13:08;17.60;90.40
2190;DHT22;1101;51.056;7.262;2022-07-22T09:15:37;17.60;90.40
2190;DHT22;1101;51.056;7.262;2022-07-22T09:18:08;17.70;90.40
2190;DHT22;1101;51.056;7.262;2022-07-22T09:20:37;17.70;90.20
2190;DHT22;1101;51.056;7.262;2022-07-22T09:23:09;17.70;90.20
2190;DHT22;1101;51.056;7.262;2022-07-22T09:25:40;17.70;90.10
2190;DHT22;1101;51.056;7.262;2022-07-22T09:28:16;17.70;90.20
2190;DHT22;1101;51.056;7.262;2022-07-22T09:30:48;17.70;90.20
2190;DHT22;1101;51.056;7.262;2022-07-22T09:33:19;17.70;90.20
2190;DHT22;1101;51.056;7.262;2022-07-22T09:35:48;17.70;90.20
2190;DHT22;1101;51.056;7.262;2022-07-22T09:38:18;17.70;90.30
2190;DHT22;1101;51.056;7.262;2022-07-22T09:40:48;17.70;90.30
2190;DHT22;1101;51.056;7.262;2022-07-22T09:43:17;17.80;90.30
2190;DHT22;1101;51.056;7.262;2022-07-22T09:45:47;17.80;90.20
2190;DHT22;1101;51.056;7.262;2022-07-22T09:48:17;17.90;90.20
2190;DHT22;1101;51.056;7.262;2022-07-22T09:50:46;17.90;90.00
2190;DHT22;1101;51.056;7.262;2022-07-22T09:53:15;18.00;90.10
2190;DHT22;1101;51.056;7.262;2022-07-22T09:55:43;18.00;90.10
2190;DHT22;1101;51.056;7.262;2022-07-22T09:58:12;18.10;90.10
2190;DHT22;1101;51.056;7.262;2022-07-22T10:00:41;18.10;90.00
2190;DHT22;1101;51.056;7.262;2022-07-22T10:03:11;18.10;90.00
2190;DHT22;1101;51.056;7.262;2022-07-22T10:05:41;18.20;90.00
2190;DHT22;1101;51.056;7.262;2022-07-22T10:08:10;18.20;90.00
2190;DHT22;1101;51.056;7.262;2022-07-22T10:10:38;18.20;89.90
2190;DHT22;1101;51.056;7.262;2022-07-22T10:13:07;18.20;89.90
2190;DHT22;1101;51.056;7.262;2022-07-22T10:15:37;18.30;89.90
2190;DHT22;1101;51.056;7.262;2022-07-22T10:18:07;18.30;89.90
2190;DHT22;1101;51.056;7.262;2022-07-22T10:20:36;18.30;90.00
2190;DHT22;1101;51.056;7.262;2022-07-22T10:23:05;18.30;90.00
2190;DHT22;1101;51.056;7.262;2022-07-22T10:25:52;18.40;90.00
2190;DHT22;1101;51.056;7.262;2022-07-22T10:28:21;18.40;89.60
2190;DHT22;1101;51.056;7.262;2022-07-22T10:30:51;18.50;89.60
2190;DHT22;1101;51.056;7.262;2022-07-22T10:33:21;18.50;89.50
2190;DHT22;1101;51.056;7.262;2022-07-22T10:35:55;18.50;89.50
2190;DHT22;1101;51.056;7.262;2022-07-22T10:38:25;18.50;89.50
2190;DHT22;1101;51.056;7.262;2022-07-22T10:40:55;18.60;89.60
2190;DHT22;1101;51.056;7.262;2022-07-22T10:43:25;18.60;89.60
2190;DHT22;1101;51.056;7.262;2022-07-22T10:45:57;18.60;89.50
2190;DHT22;1101;51.056;7.262;2022-07-22T10:48:44;18.70;89.60
2190;DHT22;1101;51.056;7.262;2022-07-22T10:51:13;18.70;89.60
2190;DHT22;1101;51.056;7.262;2022-07-22T10:53:46;18.80;89.50
2190;DHT22;1101;51.056;7.262;2022-07-22T10:56:20;18.90;89.40
2190;DHT22;1101;51.056;7.262;2022-07-22T10:58:53;19.00;89.40
2190;DHT22;1101;51.056;7.262;2022-07-22T11:01:25;19.00;89.30
2190;DHT22;1101;51.056;7.262;2022-07-22T11:04:07;19.10;89.20
2190;DHT22;1101;51.056;7.262;2022-07-22T11:06:43;19.20;89.00
2190;DHT22;1101;51.056;7.262;2022-07-22T11:09:13;19.30;88.90
2190;DHT22;1101;51.056;7.262;2022-07-22T11:11:45;19.30;88.80
2190;DHT22;1101;51.056;7.262;2022-07-22T11:14:22;19.40;88.70
2190;DHT22;1101;51.056;7.262;2022-07-22T11:16:54;19.40;88.60
2190;DHT22;1101;51.056;7.262;2022-07-22T11:19:24;19.50;88.40
2190;DHT22;1101;51.056;7.262;2022-07-22T11:21:54;19.60;88.30
2190;DHT22;1101;51.056;7.262;2022-07-22T11:24:23;19.70;88.20
2190;DHT22;1101;51.056;7.262;2022-07-22T11:26:53;19.80;88.20
2190;DHT22;1101;51.056;7.262;2022-07-22T11:29:30;19.80;88.10
2190;DHT22;1101;51.056;7.262;2022-07-22T11:32:04;19.90;88.10
2190;DHT22;1101;51.056;7.262;2022-07-22T11:34:33;20.00;88.10
2190;DHT22;1101;51.056;7.262;2022-07-22T11:37:02;20.00;88.10
2190;DHT22;1101;51.056;7.262;2022-07-22T11:39:31;20.00;88.00
2190;DHT22;1101;51.056;7.262;2022-07-22T11:41:59;20.10;88.00
2190;DHT22;1101;51.056;7.262;2022-07-22T11:44:32;20.30;88.00
2190;DHT22;1101;51.056;7.262;2022-07-22T11:47:01;20.30;87.80
2190;DHT22;1101;51.056;7.262;2022-07-22T11:49:31;20.40;87.90
2190;DHT22;1101;51.056;7.262;2022-07-22T11:52:00;20.50;87.70
2190;DHT22;1101;51.056;7.262;2022-07-22T11:54:28;20.60;87.80
2190;DHT22;1101;51.056;7.262;2022-07-22T11:56:55;20.70;87.60
2190;DHT22;1101;51.056;7.262;2022-07-22T11:59:24;20.80;87.50
2190;DHT22;1101;51.056;7.262;2022-07-22T12:01:52;20.90;87.30
2190;DHT22;1101;51.056;7.262;2022-07-22T12:04:23;21.00;87.30
2190;DHT22;1101;51.056;7.262;2022-07-22T12:06:52;21.00;87.20
2190;DHT22;1101;51.056;7.262;2022-07-22T12:09:23;21.00;87.10
2190;DHT22;1101;51.056;7.262;2022-07-22T12:11:52;21.00;86.90
2190;DHT22;1101;51.056;7.262;2022-07-22T12:14:22;21.00;86.90
2190;DHT22;1101;51.056;7.262;2022-07-22T12:16:56;21.00;87.00
2190;DHT22;1101;51.056;7.262;2022-07-22T12:19:27;21.10;87.10
2190;DHT22;1101;51.056;7.262;2022-07-22T12:21:58;21.10;86.90
2190;DHT22;1101;51.056;7.262;2022-07-22T12:24:27;21.20;86.60
2190;DHT22;1101;51.056;7.262;2022-07-22T12:26:59;21.30;86.60
2190;DHT22;1101;51.056;7.262;2022-07-22T12:29:30;21.30;86.50
2190;DHT22;1101;51.056;7.262;2022-07-22T12:32:00;21.40;86.60
2190;DHT22;1101;51.056;7.262;2022-07-22T12:34:32;21.40;86.30
2190;DHT22;1101;51.056;7.262;2022-07-22T12:37:01;21.40;86.30
2190;DHT22;1101;51.056;7.262;2022-07-22T12:39:39;21.40;86.30
2190;DHT22;1101;51.056;7.262;2022-07-22T12:42:16;21.40;86.20
2190;DHT22;1101;51.056;7.262;2022-07-22T12:44:53;21.40;86.10
2190;DHT22;1101;51.056;7.262;2022-07-22T12:47:45;21.40;86.10
2190;DHT22;1101;51.056;7.262;2022-07-22T12:50:23;21.50;86.20
2190;DHT22;1101;51.056;7.262;2022-07-22T12:52:52;21.60;86.10
2190;DHT22;1101;51.056;7.262;2022-07-22T12:55:43;21.70;86.00
2190;DHT22;1101;51.056;7.262;2022-07-22T12:58:11;21.80;85.70
2190;DHT22;1101;51.056;7.262;2022-07-22T13:00:43;21.90;85.70
2190;DHT22;1101;51.056;7.262;2022-07-22T13:03:11;21.90;85.50
2190;DHT22;1101;51.056;7.262;2022-07-22T13:05:40;21.90;85.30
2190;DHT22;1101;51.056;7.262;2022-07-22T13:08:08;22.00;85.60
2190;DHT22;1101;51.056;7.262;2022-07-22T13:10:36;22.10;85.50
2190;DHT22;1101;51.056;7.262;2022-07-22T13:13:05;22.20;85.20
2190;DHT22;1101;51.056;7.262;2022-07-22T13:15:33;22.30;85.00
2190;DHT22;1101;51.056;7.262;2022-07-22T13:18:01;22.30;84.90
2190;DHT22;1101;51.056;7.262;2022-07-22T13:20:30;22.30;84.70
2190;DHT22;1101;51.056;7.262;2022-07-22T13:22:59;22.40;84.90
2190;DHT22;1101;51.056;7.262;2022-07-22T13:25:27;22.40;84.80
2190;DHT22;1101;51.056;7.262;2022-07-22T13:27:57;22.40;84.60
2190;DHT22;1101;51.056;7.262;2022-07-22T13:30:25;22.50;84.70
2190;DHT22;1101;51.056;7.262;2022-07-22T13:32:53;22.50;85.20
2190;DHT22;1101;51.056;7.262;2022-07-22T13:35:21;22.60;84.60
2190;DHT22;1101;51.056;7.262;2022-07-22T13:37:49;22.60;84.60
2190;DHT22;1101;51.056;7.262;2022-07-22T13:40:18;22.70;84.30
2190;DHT22;1101;51.056;7.262;2022-07-22T13:42:46;22.80;84.20
2190;DHT22;1101;51.056;7.262;2022-07-22T13:45:14;22.80;84.10
2190;DHT22;1101;51.056;7.262;2022-07-22T13:47:42;22.80;83.90
2190;DHT22;1101;51.056;7.262;2022-07-22T13:50:10;22.80;83.80
2190;DHT22;1101;51.056;7.262;2022-07-22T13:52:38;22.80;83.80
2190;DHT22;1101;51.056;7.262;2022-07-22T13:55:06;22.90;83.70
2190;DHT22;1101;51.056;7.262;2022-07-22T13:57:35;22.90;83.80
2190;DHT22;1101;51.056;7.262;2022-07-22T14:00:04;23.00;83.60
2190;DHT22;1101;51.056;7.262;2022-07-22T14:02:40;23.00;83.40
2190;DHT22;1101;51.056;7.262;2022-07-22T14:05:10;23.00;83.20
2190;DHT22;1101;51.056;7.262;2022-07-22T14:07:38;23.10;83.10
2190;DHT22;1101;51.056;7.262;2022-07-22T14:10:07;23.20;82.90
2190;DHT22;1101;51.056;7.262;2022-07-22T14:12:37;23.30;82.80
2190;DHT22;1101;51.056;7.262;2022-07-22T14:15:06;23.30;82.80
2190;DHT22;1101;51.056;7.262;2022-07-22T14:17:34;23.30;83.00
2190;DHT22;1101;51.056;7.262;2022-07-22T14:20:04;23.40;82.90
2190;DHT22;1101;51.056;7.262;2022-07-22T14:22:34;23.40;82.70
2190;DHT22;1101;51.056;7.262;2022-07-22T14:25:02;23.50;82.70
2190;DHT22;1101;51.056;7.262;2022-07-22T14:27:30;23.60;82.50
2190;DHT22;1101;51.056;7.262;2022-07-22T14:29:59;23.60;82.40
2190;DHT22;1101;51.056;7.262;2022-07-22T14:32:27;23.70;82.20
2190;DHT22;1101;51.056;7.262;2022-07-22T14:34:55;23.70;81.90
2190;DHT22;1101;51.056;7.262;2022-07-22T14:37:23;23.70;81.80
2190;DHT22;1101;51.056;7.262;2022-07-22T14:39:53;23.80;81.90
2190;DHT22;1101;51.056;7.262;2022-07-22T14:42:21;23.80;81.70
2190;DHT22;1101;51.056;7.262;2022-07-22T14:44:48;23.80;81.70
2190;DHT22;1101;51.056;7.262;2022-07-22T14:47:18;23.80;81.90
2190;DHT22;1101;51.056;7.262;2022-07-22T14:49:45;23.80;81.90
2190;DHT22;1101;51.056;7.262;2022-07-22T14:52:13;23.80;81.50
2190;DHT22;1101;51.056;7.262;2022-07-22T14:54:41;23.90;81.90
2190;DHT22;1101;51.056;7.262;2022-07-22T14:57:09;23.90;81.50
2190;DHT22;1101;51.056;7.262;2022-07-22T14:59:37;23.90;81.30
2190;DHT22;1101;51.056;7.262;2022-07-22T15:02:05;23.90;81.10
2190;DHT22;1101;51.056;7.262;2022-07-22T15:04:34;23.90;81.20
2190;DHT22;1101;51.056;7.262;2022-07-22T15:07:02;23.90;81.30
2190;DHT22;1101;51.056;7.262;2022-07-22T15:09:32;23.90;81.30
2190;DHT22;1101;51.056;7.262;2022-07-22T15:12:00;23.80;81.50
2190;DHT22;1101;51.056;7.262;2022-07-22T15:14:28;23.80;81.60
2190;DHT22;1101;51.056;7.262;2022-07-22T15:16:56;23.70;81.20
2190;DHT22;1101;51.056;7.262;2022-07-22T15:19:24;23.70;81.00
2190;DHT22;1101;51.056;7.262;2022-07-22T15:21:54;23.70;81.10
2190;DHT22;1101;51.056;7.262;2022-07-22T15:24:22;23.80;81.40
2190;DHT22;1101;51.056;7.262;2022-07-22T15:26:50;23.80;81.20
2190;DHT22;1101;51.056;7.262;2022-07-22T15:29:18;23.80;81.20
2190;DHT22;1101;51.056;7.262;2022-07-22T15:31:46;23.70;80.70
2190;DHT22;1101;51.056;7.262;2022-07-22T15:34:14;23.70;80.90
2190;DHT22;1101;51.056;7.262;2022-07-22T15:36:45;23.70;80.70
2190;DHT22;1101;51.056;7.262;2022-07-22T15:39:14;23.70;80.90
2190;DHT22;1101;51.056;7.262;2022-07-22T15:41:42;23.70;81.00
2190;DHT22;1101;51.056;7.262;2022-07-22T15:44:10;23.70;80.80
2190;DHT22;1101;51.056;7.262;2022-07-22T15:46:37;23.70;80.80
2190;DHT22;1101;51.056;7.262;2022-07-22T15:49:05;23.70;80.80
2190;DHT22;1101;51.056;7.262;2022-07-22T15:51:33;23.60;80.80
2190;DHT22;1101;51.056;7.262;2022-07-22T15:54:01;23.50;80.70
2190;DHT22;1101;51.056;7.262;2022-07-22T15:56:30;23.50;80.60
2190;DHT22;1101;51.056;7.262;2022-07-22T15:58:58;23.50;80.90
2190;DHT22;1101;51.056;7.262;2022-07-22T16:01:55;23.40;80.10
2190;DHT22;1101;51.056;7.262;2022-07-22T16:04:23;23.40;80.20
2190;DHT22;1101;51.056;7.262;2022-07-22T16:06:51;23.40;80.60
2190;DHT22;1101;51.056;7.262;2022-07-22T16:09:21;23.30;80.40
2190;DHT22;1101;51.056;7.262;2022-07-22T16:11:55;23.30;80.60
2190;DHT22;1101;51.056;7.262;2022-07-22T16:14:23;23.20;80.80
2190;DHT22;1101;51.056;7.262;2022-07-22T16:16:53;23.20;80.90
2190;DHT22;1101;51.056;7.262;2022-07-22T16:19:21;23.20;80.90